sensor_id;sensor_type;location;lat;lon;timestamp;P1;durP1;ratioP1;P2;durP2;ratioP2
12816;SDS011;6473;51.552;6.716;2023-04-03T00:00:30;10.57;;;6.60;;
12816;SDS011;6473;51.552;6.716;2023-04-03T00:02:57;8.67;;;6.90;;
12816;SDS011;6473;51.552;6.716;2023-04-03T00:05:24;7.20;;;6.50;;
12816;SDS011;6473;51.552;6.716;2023-04-03T00:07:51;8.27;;;6.60;;
12816;SDS011;6473;51.552;6.716;2023-04-03T00:10:18;8.47;;;6.50;;
12816;SDS011;6473;51.552;6.716;2023-04-03T00:12:45;9.97;;;7.13;;
12816;SDS011;6473;51.552;6.716;2023-04-03T00:15:14;7.13;;;6.17;;
12816;SDS011;6473;51.552;6.716;2023-04-03T00:17:41;8.57;;;6.80;;
12816;SDS011;6473;51.552;6.716;2023-04-03T00:20:08;7.80;;;6.40;;
12816;SDS011;6473;51.552;6.716;2023-04-03T00:22:35;7.83;;;6.57;;
12816;SDS011;6473;51.552;6.716;2023-04-03T00:25:02;8.63;;;6.23;;
12816;SDS011;6473;51.552;6.716;2023-04-03T00:27:29;7.33;;;6.40;;
12816;SDS011;6473;51.552;6.716;2023-04-03T00:29:57;7.40;;;6.03;;
12816;SDS011;6473;51.552;6.716;2023-04-03T00:32:25;8.70;;;6.10;;
12816;SDS011;6473;51.552;6.716;2023-04-03T00:34:52;13.00;;;5.87;;
12816;SDS011;6473;51.552;6.716;2023-04-03T00:37:19;7.47;;;5.77;;
12816;SDS011;6473;51.552;6.716;2023-04-03T00:39:46;7.40;;;6.20;;
12816;SDS011;6473;51.552;6.716;2023-04-03T00:42:13;7.07;;;6.00;;
12816;SDS011;6473;51.552;6.716;2023-04-03T00:48:00;7.60;;;5.43;;
12816;SDS011;6473;51.552;6.716;2023-04-03T00:50:31;7.23;;;4.97;;
12816;SDS011;6473;51.552;6.716;2023-04-03T00:53:01;5.53;;;4.33;;
12816;SDS011;6473;51.552;6.716;2023-04-03T00:55:28;4.30;;;3.90;;
12816;SDS011;6473;51.552;6.716;2023-04-03T00:57:56;4.63;;;3.80;;
12816;SDS011;6473;51.552;6.716;2023-04-03T01:00:24;4.60;;;3.90;;
12816;SDS011;6473;51.552;6.716;2023-04-03T01:16:23;4.03;;;3.40;;
12816;SDS011;6473;51.552;6.716;2023-04-03T01:29:56;3.80;;;3.43;;
12816;SDS011;6473;51.552;6.716;2023-04-03T01:43:31;4.83;;;3.43;;
12816;SDS011;6473;51.552;6.716;2023-04-03T01:49:58;3.57;;;3.13;;
12816;SDS011;6473;51.552;6.716;2023-04-03T01:59:13;6.40;;;2.97;;
12816;SDS011;6473;51.552;6.716;2023-04-03T02:01:42;6.90;;;2.80;;
12816;SDS011;6473;51.552;6.716;2023-04-03T02:26:21;3.33;;;2.10;;
12816;SDS011;6473;51.552;6.716;2023-04-03T02:28:48;3.23;;;1.97;;
12816;SDS011;6473;51.552;6.716;2023-04-03T02:31:15;2.43;;;1.73;;
12816;SDS011;6473;51.552;6.716;2023-04-03T02:33:45;4.17;;;2.13;;
12816;SDS011;6473;51.552;6.716;2023-04-03T02:36:14;4.60;;;2.17;;
12816;SDS011;6473;51.552;6.716;2023-04-03T02:38:46;4.70;;;2.37;;
12816;SDS011;6473;51.552;6.716;2023-04-03T02:41:13;2.63;;;1.77;;
12816;SDS011;6473;51.552;6.716;2023-04-03T02:43:42;3.80;;;1.53;;
12816;SDS011;6473;51.552;6.716;2023-04-03T02:46:09;4.00;;;1.80;;
12816;SDS011;6473;51.552;6.716;2023-04-03T02:48:36;5.83;;;2.20;;
12816;SDS011;6473;51.552;6.716;2023-04-03T02:51:03;5.77;;;2.27;;
12816;SDS011;6473;51.552;6.716;2023-04-03T02:53:31;4.13;;;2.10;;
12816;SDS011;6473;51.552;6.716;2023-04-03T02:56:04;2.90;;;1.90;;
12816;SDS011;6473;51.552;6.716;2023-04-03T02:58:31;2.50;;;1.90;;
12816;SDS011;6473;51.552;6.716;2023-04-03T03:01:00;3.07;;;1.80;;
12816;SDS011;6473;51.552;6.716;2023-04-03T03:03:27;2.30;;;1.53;;
12816;SDS011;6473;51.552;6.716;2023-04-03T03:06:00;1.70;;;1.53;;
12816;SDS011;6473;51.552;6.716;2023-04-03T03:08:29;2.50;;;1.73;;
12816;SDS011;6473;51.552;6.716;2023-04-03T03:10:56;2.73;;;1.77;;
12816;SDS011;6473;51.552;6.716;2023-04-03T03:13:23;5.10;;;1.77;;
12816;SDS011;6473;51.552;6.716;2023-04-03T03:15:50;2.63;;;1.53;;
12816;SDS011;6473;51.552;6.716;2023-04-03T03:18:18;3.13;;;1.73;;
12816;SDS011;6473;51.552;6.716;2023-04-03T03:20:45;4.47;;;1.80;;
12816;SDS011;6473;51.552;6.716;2023-04-03T03:23:12;3.63;;;2.00;;
12816;SDS011;6473;51.552;6.716;2023-04-03T03:25:40;3.03;;;1.63;;
12816;SDS011;6473;51.552;6.716;2023-04-03T03:28:07;2.97;;;1.90;;
12816;SDS011;6473;51.552;6.716;2023-04-03T03:30:34;5.47;;;1.70;;
12816;SDS011;6473;51.552;6.716;2023-04-03T03:33:01;2.33;;;1.50;;
12816;SDS011;6473;51.552;6.716;2023-04-03T03:35:30;3.47;;;1.77;;
12816;SDS011;6473;51.552;6.716;2023-04-03T03:37:57;4.07;;;1.60;;
12816;SDS011;6473;51.552;6.716;2023-04-03T03:40:24;3.87;;;1.50;;
12816;SDS011;6473;51.552;6.716;2023-04-03T03:42:52;3.07;;;1.73;;
12816;SDS011;6473;51.552;6.716;2023-04-03T03:45:19;5.10;;;2.17;;
12816;SDS011;6473;51.552;6.716;2023-04-03T03:47:46;3.37;;;1.40;;
12816;SDS011;6473;51.552;6.716;2023-04-03T03:50:14;5.00;;;1.80;;
12816;SDS011;6473;51.552;6.716;2023-04-03T03:52:45;2.83;;;1.50;;
12816;SDS011;6473;51.552;6.716;2023-04-03T03:55:12;1.67;;;1.47;;
12816;SDS011;6473;51.552;6.716;2023-04-03T03:57:42;1.97;;;1.53;;
12816;SDS011;6473;51.552;6.716;2023-04-03T04:00:10;4.13;;;1.50;;
12816;SDS011;6473;51.552;6.716;2023-04-03T04:02:46;4.10;;;1.80;;
12816;SDS011;6473;51.552;6.716;2023-04-03T04:05:16;2.50;;;1.30;;
12816;SDS011;6473;51.552;6.716;2023-04-03T04:07:45;2.47;;;1.73;;
12816;SDS011;6473;51.552;6.716;2023-04-03T04:10:14;2.43;;;1.30;;
12816;SDS011;6473;51.552;6.716;2023-04-03T04:12:42;3.17;;;1.63;;
12816;SDS011;6473;51.552;6.716;2023-04-03T04:15:10;6.07;;;1.70;;
12816;SDS011;6473;51.552;6.716;2023-04-03T04:17:38;4.03;;;1.47;;
12816;SDS011;6473;51.552;6.716;2023-04-03T04:20:10;3.50;;;1.40;;
12816;SDS011;6473;51.552;6.716;2023-04-03T04:22:38;2.20;;;1.63;;
12816;SDS011;6473;51.552;6.716;2023-04-03T04:25:08;3.27;;;1.43;;
12816;SDS011;6473;51.552;6.716;2023-04-03T04:27:37;2.90;;;1.63;;
12816;SDS011;6473;51.552;6.716;2023-04-03T04:30:05;4.60;;;1.67;;
12816;SDS011;6473;51.552;6.716;2023-04-03T04:32:33;5.20;;;1.70;;
12816;SDS011;6473;51.552;6.716;2023-04-03T04:35:04;2.93;;;1.80;;
12816;SDS011;6473;51.552;6.716;2023-04-03T04:37:34;4.47;;;1.33;;
12816;SDS011;6473;51.552;6.716;2023-04-03T04:40:02;4.60;;;2.00;;
12816;SDS011;6473;51.552;6.716;2023-04-03T04:42:31;4.80;;;1.93;;
12816;SDS011;6473;51.552;6.716;2023-04-03T04:44:58;5.90;;;1.90;;
12816;SDS011;6473;51.552;6.716;2023-04-03T04:47:25;5.73;;;1.97;;
12816;SDS011;6473;51.552;6.716;2023-04-03T04:49:55;2.10;;;1.40;;
12816;SDS011;6473;51.552;6.716;2023-04-03T04:52:22;4.20;;;2.17;;
12816;SDS011;6473;51.552;6.716;2023-04-03T04:54:49;4.10;;;1.40;;
12816;SDS011;6473;51.552;6.716;2023-04-03T04:57:17;4.90;;;2.30;;
12816;SDS011;6473;51.552;6.716;2023-04-03T04:59:48;4.50;;;2.00;;
12816;SDS011;6473;51.552;6.716;2023-04-03T05:02:15;3.63;;;1.90;;
12816;SDS011;6473;51.552;6.716;2023-04-03T05:04:43;2.07;;;1.60;;
12816;SDS011;6473;51.552;6.716;2023-04-03T05:07:17;7.00;;;2.03;;
12816;SDS011;6473;51.552;6.716;2023-04-03T05:09:44;2.97;;;1.50;;
12816;SDS011;6473;51.552;6.716;2023-04-03T05:12:12;3.10;;;1.70;;
12816;SDS011;6473;51.552;6.716;2023-04-03T05:14:48;3.47;;;1.80;;
12816;SDS011;6473;51.552;6.716;2023-04-03T05:17:15;5.10;;;1.90;;
12816;SDS011;6473;51.552;6.716;2023-04-03T05:19:48;8.60;;;2.10;;
12816;SDS011;6473;51.552;6.716;2023-04-03T05:22:17;3.73;;;1.83;;
12816;SDS011;6473;51.552;6.716;2023-04-03T05:24:44;7.67;;;2.40;;
12816;SDS011;6473;51.552;6.716;2023-04-03T05:27:11;2.43;;;1.87;;
12816;SDS011;6473;51.552;6.716;2023-04-03T05:29:42;4.30;;;2.10;;
12816;SDS011;6473;51.552;6.716;2023-04-03T05:32:15;4.33;;;1.80;;
12816;SDS011;6473;51.552;6.716;2023-04-03T05:34:45;3.07;;;1.67;;
12816;SDS011;6473;51.552;6.716;2023-04-03T05:37:12;3.03;;;1.60;;
12816;SDS011;6473;51.552;6.716;2023-04-03T05:39:40;3.83;;;1.67;;
12816;SDS011;6473;51.552;6.716;2023-04-03T05:42:09;3.33;;;1.60;;
12816;SDS011;6473;51.552;6.716;2023-04-03T05:44:37;2.67;;;1.57;;
12816;SDS011;6473;51.552;6.716;2023-04-03T05:47:04;3.50;;;1.60;;
12816;SDS011;6473;51.552;6.716;2023-04-03T05:49:32;4.20;;;1.77;;
12816;SDS011;6473;51.552;6.716;2023-04-03T05:52:00;4.97;;;1.80;;
12816;SDS011;6473;51.552;6.716;2023-04-03T05:54:30;3.23;;;1.77;;
12816;SDS011;6473;51.552;6.716;2023-04-03T05:57:13;3.03;;;1.80;;
12816;SDS011;6473;51.552;6.716;2023-04-03T05:59:41;1.60;;;1.50;;
12816;SDS011;6473;51.552;6.716;2023-04-03T06:02:10;4.33;;;1.70;;
12816;SDS011;6473;51.552;6.716;2023-04-03T06:04:39;3.57;;;1.70;;
12816;SDS011;6473;51.552;6.716;2023-04-03T06:07:06;3.10;;;1.80;;
12816;SDS011;6473;51.552;6.716;2023-04-03T06:09:36;4.90;;;1.90;;
12816;SDS011;6473;51.552;6.716;2023-04-03T06:12:03;5.43;;;1.87;;
12816;SDS011;6473;51.552;6.716;2023-04-03T06:14:31;4.47;;;1.73;;
12816;SDS011;6473;51.552;6.716;2023-04-03T06:17:00;4.07;;;1.60;;
12816;SDS011;6473;51.552;6.716;2023-04-03T06:19:27;4.10;;;1.73;;
12816;SDS011;6473;51.552;6.716;2023-04-03T06:21:57;3.73;;;1.57;;
12816;SDS011;6473;51.552;6.716;2023-04-03T06:24:24;2.83;;;1.73;;
12816;SDS011;6473;51.552;6.716;2023-04-03T06:26:52;3.57;;;1.80;;
12816;SDS011;6473;51.552;6.716;2023-04-03T06:29:19;4.53;;;1.97;;
12816;SDS011;6473;51.552;6.716;2023-04-03T06:31:46;3.72;;;2.28;;
12816;SDS011;6473;51.552;6.716;2023-04-03T06:34:14;8.07;;;1.90;;
12816;SDS011;6473;51.552;6.716;2023-04-03T06:36:42;3.20;;;1.70;;
12816;SDS011;6473;51.552;6.716;2023-04-03T06:39:12;3.47;;;1.70;;
12816;SDS011;6473;51.552;6.716;2023-04-03T06:41:40;8.57;;;2.30;;
12816;SDS011;6473;51.552;6.716;2023-04-03T06:44:07;2.85;;;1.55;;
12816;SDS011;6473;51.552;6.716;2023-04-03T06:46:36;5.20;;;1.80;;
12816;SDS011;6473;51.552;6.716;2023-04-03T06:49:04;4.45;;;2.00;;
12816;SDS011;6473;51.552;6.716;2023-04-03T06:51:32;6.07;;;1.73;;
12816;SDS011;6473;51.552;6.716;2023-04-03T06:54:00;4.35;;;2.03;;
12816;SDS011;6473;51.552;6.716;2023-04-03T06:56:29;3.60;;;1.60;;
12816;SDS011;6473;51.552;6.716;2023-04-03T06:58:56;3.15;;;1.75;;
12816;SDS011;6473;51.552;6.716;2023-04-03T07:01:23;4.97;;;2.10;;
12816;SDS011;6473;51.552;6.716;2023-04-03T07:03:52;4.60;;;2.00;;
12816;SDS011;6473;51.552;6.716;2023-04-03T07:06:20;3.80;;;1.70;;
12816;SDS011;6473;51.552;6.716;2023-04-03T07:08:46;3.75;;;1.90;;
12816;SDS011;6473;51.552;6.716;2023-04-03T07:11:14;2.92;;;1.55;;
12816;SDS011;6473;51.552;6.716;2023-04-03T07:13:42;3.08;;;2.08;;
12816;SDS011;6473;51.552;6.716;2023-04-03T07:16:09;4.65;;;1.77;;
12816;SDS011;6473;51.552;6.716;2023-04-03T07:18:36;8.65;;;2.42;;
12816;SDS011;6473;51.552;6.716;2023-04-03T07:21:05;2.55;;;1.70;;
12816;SDS011;6473;51.552;6.716;2023-04-03T07:23:32;3.05;;;1.25;;
12816;SDS011;6473;51.552;6.716;2023-04-03T07:26:00;3.10;;;1.50;;
12816;SDS011;6473;51.552;6.716;2023-04-03T07:28:27;3.13;;;2.08;;
12816;SDS011;6473;51.552;6.716;2023-04-03T07:31:00;2.83;;;1.83;;
12816;SDS011;6473;51.552;6.716;2023-04-03T07:33:31;2.83;;;1.40;;
12816;SDS011;6473;51.552;6.716;2023-04-03T07:35:59;1.50;;;1.30;;
12816;SDS011;6473;51.552;6.716;2023-04-03T07:38:28;2.20;;;1.60;;
12816;SDS011;6473;51.552;6.716;2023-04-03T07:40:55;3.78;;;1.80;;
12816;SDS011;6473;51.552;6.716;2023-04-03T07:43:24;4.88;;;1.92;;
12816;SDS011;6473;51.552;6.716;2023-04-03T07:45:52;1.92;;;1.70;;
12816;SDS011;6473;51.552;6.716;2023-04-03T07:48:21;2.65;;;1.70;;
12816;SDS011;6473;51.552;6.716;2023-04-03T07:50:49;5.65;;;1.90;;
12816;SDS011;6473;51.552;6.716;2023-04-03T07:53:17;3.03;;;1.50;;
12816;SDS011;6473;51.552;6.716;2023-04-03T07:55:45;4.57;;;1.60;;
12816;SDS011;6473;51.552;6.716;2023-04-03T07:58:14;3.40;;;1.95;;
12816;SDS011;6473;51.552;6.716;2023-04-03T08:00:43;2.35;;;1.48;;
12816;SDS011;6473;51.552;6.716;2023-04-03T08:03:11;4.78;;;1.83;;
12816;SDS011;6473;51.552;6.716;2023-04-03T08:05:40;2.53;;;1.67;;
12816;SDS011;6473;51.552;6.716;2023-04-03T08:08:10;2.90;;;1.50;;
12816;SDS011;6473;51.552;6.716;2023-04-03T08:10:38;3.30;;;1.83;;
12816;SDS011;6473;51.552;6.716;2023-04-03T08:13:06;3.88;;;1.33;;
12816;SDS011;6473;51.552;6.716;2023-04-03T08:15:34;2.85;;;1.60;;
12816;SDS011;6473;51.552;6.716;2023-04-03T08:18:02;2.80;;;1.60;;
12816;SDS011;6473;51.552;6.716;2023-04-03T08:20:29;1.60;;;1.13;;
12816;SDS011;6473;51.552;6.716;2023-04-03T08:22:57;2.35;;;1.20;;
12816;SDS011;6473;51.552;6.716;2023-04-03T08:25:24;2.78;;;1.30;;
12816;SDS011;6473;51.552;6.716;2023-04-03T08:27:51;2.92;;;1.40;;
12816;SDS011;6473;51.552;6.716;2023-04-03T08:30:18;2.58;;;1.45;;
12816;SDS011;6473;51.552;6.716;2023-04-03T08:32:45;2.47;;;1.40;;
12816;SDS011;6473;51.552;6.716;2023-04-03T08:35:12;2.63;;;1.23;;
12816;SDS011;6473;51.552;6.716;2023-04-03T08:37:39;1.85;;;1.30;;
12816;SDS011;6473;51.552;6.716;2023-04-03T08:40:11;2.15;;;1.35;;
12816;SDS011;6473;51.552;6.716;2023-04-03T08:42:42;2.53;;;1.50;;
12816;SDS011;6473;51.552;6.716;2023-04-03T08:45:19;1.58;;;1.10;;
12816;SDS011;6473;51.552;6.716;2023-04-03T08:47:53;3.03;;;1.15;;
12816;SDS011;6473;51.552;6.716;2023-04-03T08:50:29;2.63;;;1.23;;
12816;SDS011;6473;51.552;6.716;2023-04-03T08:53:00;2.50;;;1.25;;
12816;SDS011;6473;51.552;6.716;2023-04-03T08:55:33;3.00;;;1.33;;
12816;SDS011;6473;51.552;6.716;2023-04-03T08:58:04;1.20;;;1.10;;
12816;SDS011;6473;51.552;6.716;2023-04-03T09:00:34;1.35;;;1.10;;
12816;SDS011;6473;51.552;6.716;2023-04-03T09:03:11;1.95;;;1.23;;
12816;SDS011;6473;51.552;6.716;2023-04-03T09:05:41;3.05;;;1.40;;
12816;SDS011;6473;51.552;6.716;2023-04-03T09:08:18;1.25;;;1.15;;
12816;SDS011;6473;51.552;6.716;2023-04-03T09:10:50;1.35;;;1.17;;
12816;SDS011;6473;51.552;6.716;2023-04-03T09:13:27;2.90;;;1.50;;
12816;SDS011;6473;51.552;6.716;2023-04-03T09:16:02;2.08;;;1.15;;
12816;SDS011;6473;51.552;6.716;2023-04-03T09:18:44;3.40;;;1.10;;
12816;SDS011;6473;51.552;6.716;2023-04-03T09:21:17;9.60;;;1.70;;
12816;SDS011;6473;51.552;6.716;2023-04-03T09:23:51;3.13;;;1.33;;
12816;SDS011;6473;51.552;6.716;2023-04-03T09:26:23;1.67;;;1.17;;
12816;SDS011;6473;51.552;6.716;2023-04-03T09:28:52;2.47;;;1.30;;
12816;SDS011;6473;51.552;6.716;2023-04-03T09:31:23;3.17;;;1.35;;
12816;SDS011;6473;51.552;6.716;2023-04-03T09:33:53;1.42;;;0.90;;
12816;SDS011;6473;51.552;6.716;2023-04-03T09:36:37;1.65;;;1.02;;
12816;SDS011;6473;51.552;6.716;2023-04-03T09:39:07;2.63;;;1.17;;
12816;SDS011;6473;51.552;6.716;2023-04-03T09:41:39;3.08;;;0.88;;
12816;SDS011;6473;51.552;6.716;2023-04-03T09:44:17;1.27;;;1.10;;
12816;SDS011;6473;51.552;6.716;2023-04-03T09:46:47;1.40;;;1.10;;
12816;SDS011;6473;51.552;6.716;2023-04-03T09:49:15;1.40;;;1.00;;
12816;SDS011;6473;51.552;6.716;2023-04-03T09:51:43;3.70;;;1.10;;
12816;SDS011;6473;51.552;6.716;2023-04-03T09:54:30;1.80;;;1.08;;
12816;SDS011;6473;51.552;6.716;2023-04-03T09:57:04;2.22;;;1.15;;
12816;SDS011;6473;51.552;6.716;2023-04-03T09:59:33;4.53;;;1.48;;
12816;SDS011;6473;51.552;6.716;2023-04-03T10:02:02;2.10;;;1.30;;
12816;SDS011;6473;51.552;6.716;2023-04-03T10:04:37;2.05;;;1.30;;
12816;SDS011;6473;51.552;6.716;2023-04-03T10:07:25;1.08;;;0.90;;
12816;SDS011;6473;51.552;6.716;2023-04-03T10:09:57;1.08;;;0.98;;
12816;SDS011;6473;51.552;6.716;2023-04-03T10:12:28;1.00;;;0.95;;
12816;SDS011;6473;51.552;6.716;2023-04-03T10:14:56;3.03;;;1.20;;
12816;SDS011;6473;51.552;6.716;2023-04-03T10:17:26;1.30;;;1.20;;
12816;SDS011;6473;51.552;6.716;2023-04-03T10:20:07;2.15;;;1.00;;
12816;SDS011;6473;51.552;6.716;2023-04-03T10:22:48;2.63;;;1.30;;
12816;SDS011;6473;51.552;6.716;2023-04-03T10:25:27;1.23;;;1.00;;
12816;SDS011;6473;51.552;6.716;2023-04-03T10:28:00;1.15;;;1.05;;
12816;SDS011;6473;51.552;6.716;2023-04-03T10:30:31;1.75;;;1.00;;
12816;SDS011;6473;51.552;6.716;2023-04-03T10:36:04;2.75;;;1.25;;
12816;SDS011;6473;51.552;6.716;2023-04-03T10:38:41;1.75;;;1.33;;
12816;SDS011;6473;51.552;6.716;2023-04-03T10:41:16;1.70;;;1.60;;
12816;SDS011;6473;51.552;6.716;2023-04-03T10:43:59;1.85;;;1.00;;
12816;SDS011;6473;51.552;6.716;2023-04-03T10:46:36;1.65;;;1.00;;
12816;SDS011;6473;51.552;6.716;2023-04-03T10:49:13;1.77;;;1.00;;
12816;SDS011;6473;51.552;6.716;2023-04-03T10:51:50;3.00;;;1.20;;
12816;SDS011;6473;51.552;6.716;2023-04-03T10:54:25;1.67;;;0.90;;
12816;SDS011;6473;51.552;6.716;2023-04-03T10:56:56;2.38;;;0.90;;
12816;SDS011;6473;51.552;6.716;2023-04-03T10:59:30;1.10;;;1.00;;
12816;SDS011;6473;51.552;6.716;2023-04-03T11:01:59;1.48;;;1.20;;
12816;SDS011;6473;51.552;6.716;2023-04-03T11:04:31;7.63;;;1.20;;
12816;SDS011;6473;51.552;6.716;2023-04-03T11:07:03;2.40;;;1.08;;
12816;SDS011;6473;51.552;6.716;2023-04-03T11:09:37;1.60;;;0.90;;
12816;SDS011;6473;51.552;6.716;2023-04-03T11:12:09;2.83;;;1.17;;
12816;SDS011;6473;51.552;6.716;2023-04-03T11:14:42;1.67;;;1.30;;
12816;SDS011;6473;51.552;6.716;2023-04-03T11:17:11;1.63;;;1.25;;
12816;SDS011;6473;51.552;6.716;2023-04-03T11:19:49;1.80;;;1.13;;
12816;SDS011;6473;51.552;6.716;2023-04-03T11:22:23;1.45;;;0.93;;
12816;SDS011;6473;51.552;6.716;2023-04-03T11:24:57;3.05;;;0.90;;
12816;SDS011;6473;51.552;6.716;2023-04-03T11:27:30;1.83;;;1.23;;
12816;SDS011;6473;51.552;6.716;2023-04-03T11:30:05;3.58;;;1.33;;
12816;SDS011;6473;51.552;6.716;2023-04-03T11:32:48;1.23;;;1.10;;
12816;SDS011;6473;51.552;6.716;2023-04-03T11:35:29;1.73;;;1.10;;
12816;SDS011;6473;51.552;6.716;2023-04-03T11:37:58;1.00;;;0.90;;
12816;SDS011;6473;51.552;6.716;2023-04-03T11:40:28;1.33;;;1.10;;
12816;SDS011;6473;51.552;6.716;2023-04-03T11:43:02;1.58;;;1.00;;
12816;SDS011;6473;51.552;6.716;2023-04-03T11:45:36;2.92;;;1.15;;
12816;SDS011;6473;51.552;6.716;2023-04-03T11:48:05;1.15;;;1.05;;
12816;SDS011;6473;51.552;6.716;2023-04-03T11:50:55;5.65;;;1.67;;
12816;SDS011;6473;51.552;6.716;2023-04-03T11:53:30;1.20;;;1.13;;
12816;SDS011;6473;51.552;6.716;2023-04-03T11:56:00;1.30;;;1.10;;
12816;SDS011;6473;51.552;6.716;2023-04-03T12:01:50;3.15;;;1.10;;
12816;SDS011;6473;51.552;6.716;2023-04-03T12:04:19;1.58;;;1.08;;
12816;SDS011;6473;51.552;6.716;2023-04-03T12:06:50;2.22;;;1.00;;
12816;SDS011;6473;51.552;6.716;2023-04-03T12:09:35;1.20;;;0.90;;
12816;SDS011;6473;51.552;6.716;2023-04-03T12:12:37;3.97;;;1.17;;
12816;SDS011;6473;51.552;6.716;2023-04-03T12:15:12;2.28;;;1.30;;
12816;SDS011;6473;51.552;6.716;2023-04-03T12:17:48;3.75;;;1.35;;
12816;SDS011;6473;51.552;6.716;2023-04-03T12:23:27;1.33;;;1.15;;
12816;SDS011;6473;51.552;6.716;2023-04-03T12:25:59;1.08;;;1.00;;
12816;SDS011;6473;51.552;6.716;2023-04-03T12:28:30;0.95;;;0.95;;
12816;SDS011;6473;51.552;6.716;2023-04-03T12:31:02;1.10;;;1.10;;
12816;SDS011;6473;51.552;6.716;2023-04-03T12:33:36;2.85;;;1.00;;
12816;SDS011;6473;51.552;6.716;2023-04-03T12:36:13;1.65;;;1.20;;
12816;SDS011;6473;51.552;6.716;2023-04-03T12:38:53;2.10;;;1.40;;
12816;SDS011;6473;51.552;6.716;2023-04-03T12:41:30;6.75;;;1.67;;
12816;SDS011;6473;51.552;6.716;2023-04-03T12:44:11;3.70;;;1.20;;
12816;SDS011;6473;51.552;6.716;2023-04-03T12:46:49;2.05;;;1.17;;
12816;SDS011;6473;51.552;6.716;2023-04-03T12:49:26;1.42;;;1.10;;
12816;SDS011;6473;51.552;6.716;2023-04-03T12:52:02;2.13;;;1.20;;
12816;SDS011;6473;51.552;6.716;2023-04-03T12:54:35;1.27;;;1.17;;
12816;SDS011;6473;51.552;6.716;2023-04-03T12:57:11;1.55;;;1.10;;
12816;SDS011;6473;51.552;6.716;2023-04-03T12:59:39;4.72;;;1.10;;
12816;SDS011;6473;51.552;6.716;2023-04-03T13:02:14;1.40;;;1.30;;
12816;SDS011;6473;51.552;6.716;2023-04-03T13:04:48;1.80;;;1.38;;
12816;SDS011;6473;51.552;6.716;2023-04-03T13:07:21;2.50;;;1.20;;
12816;SDS011;6473;51.552;6.716;2023-04-03T13:10:04;3.10;;;1.40;;
12816;SDS011;6473;51.552;6.716;2023-04-03T13:12:48;1.92;;;1.45;;
12816;SDS011;6473;51.552;6.716;2023-04-03T13:15:17;5.00;;;1.27;;
12816;SDS011;6473;51.552;6.716;2023-04-03T13:17:47;2.25;;;1.20;;
12816;SDS011;6473;51.552;6.716;2023-04-03T13:20:18;1.85;;;1.30;;
12816;SDS011;6473;51.552;6.716;2023-04-03T13:22:49;1.38;;;1.02;;
12816;SDS011;6473;51.552;6.716;2023-04-03T13:25:23;1.45;;;1.10;;
12816;SDS011;6473;51.552;6.716;2023-04-03T13:27:52;1.00;;;1.00;;
12816;SDS011;6473;51.552;6.716;2023-04-03T13:30:21;2.67;;;1.50;;
12816;SDS011;6473;51.552;6.716;2023-04-03T13:32:52;1.60;;;1.20;;
12816;SDS011;6473;51.552;6.716;2023-04-03T13:35:30;2.17;;;1.30;;
12816;SDS011;6473;51.552;6.716;2023-04-03T13:38:04;3.20;;;1.30;;
12816;SDS011;6473;51.552;6.716;2023-04-03T13:40:35;2.13;;;1.23;;
12816;SDS011;6473;51.552;6.716;2023-04-03T13:43:17;1.67;;;1.30;;
12816;SDS011;6473;51.552;6.716;2023-04-03T13:45:57;1.75;;;1.15;;
12816;SDS011;6473;51.552;6.716;2023-04-03T13:48:26;2.78;;;1.30;;
12816;SDS011;6473;51.552;6.716;2023-04-03T13:51:01;1.95;;;1.40;;
12816;SDS011;6473;51.552;6.716;2023-04-03T13:53:29;1.80;;;1.30;;
12816;SDS011;6473;51.552;6.716;2023-04-03T13:56:13;3.22;;;1.55;;
12816;SDS011;6473;51.552;6.716;2023-04-03T13:58:53;2.20;;;1.00;;
12816;SDS011;6473;51.552;6.716;2023-04-03T14:01:32;2.50;;;1.30;;
12816;SDS011;6473;51.552;6.716;2023-04-03T14:04:10;2.28;;;1.30;;
12816;SDS011;6473;51.552;6.716;2023-04-03T14:06:39;4.03;;;1.20;;
12816;SDS011;6473;51.552;6.716;2023-04-03T14:09:06;1.85;;;1.40;;
12816;SDS011;6473;51.552;6.716;2023-04-03T14:11:34;1.60;;;1.20;;
12816;SDS011;6473;51.552;6.716;2023-04-03T14:14:02;2.03;;;1.02;;
12816;SDS011;6473;51.552;6.716;2023-04-03T14:16:33;2.03;;;1.38;;
12816;SDS011;6473;51.552;6.716;2023-04-03T14:19:04;2.53;;;1.13;;
12816;SDS011;6473;51.552;6.716;2023-04-03T14:21:31;3.00;;;1.20;;
12816;SDS011;6473;51.552;6.716;2023-04-03T14:23:58;1.27;;;0.95;;
12816;SDS011;6473;51.552;6.716;2023-04-03T14:26:25;1.50;;;1.00;;
12816;SDS011;6473;51.552;6.716;2023-04-03T14:28:56;1.88;;;1.20;;
12816;SDS011;6473;51.552;6.716;2023-04-03T14:31:23;1.73;;;1.30;;
12816;SDS011;6473;51.552;6.716;2023-04-03T14:33:51;1.48;;;1.08;;
12816;SDS011;6473;51.552;6.716;2023-04-03T14:36:19;1.42;;;1.30;;
12816;SDS011;6473;51.552;6.716;2023-04-03T14:38:48;3.25;;;1.42;;
12816;SDS011;6473;51.552;6.716;2023-04-03T14:41:26;3.42;;;1.20;;
12816;SDS011;6473;51.552;6.716;2023-04-03T14:43:53;3.28;;;1.27;;
12816;SDS011;6473;51.552;6.716;2023-04-03T14:46:22;1.15;;;0.90;;
12816;SDS011;6473;51.552;6.716;2023-04-03T14:48:52;1.90;;;1.20;;
12816;SDS011;6473;51.552;6.716;2023-04-03T14:51:20;3.08;;;1.42;;
12816;SDS011;6473;51.552;6.716;2023-04-03T14:53:47;2.38;;;1.20;;
12816;SDS011;6473;51.552;6.716;2023-04-03T14:56:14;1.42;;;1.02;;
12816;SDS011;6473;51.552;6.716;2023-04-03T14:58:46;2.72;;;1.08;;
12816;SDS011;6473;51.552;6.716;2023-04-03T15:01:15;1.92;;;1.30;;
12816;SDS011;6473;51.552;6.716;2023-04-03T15:03:44;2.72;;;1.52;;
12816;SDS011;6473;51.552;6.716;2023-04-03T15:06:12;4.20;;;1.10;;
12816;SDS011;6473;51.552;6.716;2023-04-03T15:08:40;4.45;;;1.30;;
12816;SDS011;6473;51.552;6.716;2023-04-03T15:11:08;1.88;;;1.30;;
12816;SDS011;6473;51.552;6.716;2023-04-03T15:13:37;2.00;;;1.40;;
12816;SDS011;6473;51.552;6.716;2023-04-03T15:16:05;1.13;;;1.00;;
12816;SDS011;6473;51.552;6.716;2023-04-03T15:18:37;2.15;;;1.25;;
12816;SDS011;6473;51.552;6.716;2023-04-03T15:21:06;1.20;;;1.10;;
12816;SDS011;6473;51.552;6.716;2023-04-03T15:23:33;3.38;;;1.35;;
12816;SDS011;6473;51.552;6.716;2023-04-03T15:26:00;1.65;;;1.30;;
12816;SDS011;6473;51.552;6.716;2023-04-03T15:28:28;1.90;;;1.30;;
12816;SDS011;6473;51.552;6.716;2023-04-03T15:30:58;5.15;;;1.42;;
12816;SDS011;6473;51.552;6.716;2023-04-03T15:33:25;2.05;;;1.13;;
12816;SDS011;6473;51.552;6.716;2023-04-03T15:35:53;2.15;;;1.30;;
12816;SDS011;6473;51.552;6.716;2023-04-03T15:38:22;1.73;;;1.30;;
12816;SDS011;6473;51.552;6.716;2023-04-03T15:40:49;2.15;;;1.20;;
12816;SDS011;6473;51.552;6.716;2023-04-03T15:43:16;2.30;;;1.30;;
12816;SDS011;6473;51.552;6.716;2023-04-03T15:45:43;1.80;;;1.38;;
12816;SDS011;6473;51.552;6.716;2023-04-03T15:48:11;3.45;;;1.48;;
12816;SDS011;6473;51.552;6.716;2023-04-03T15:50:38;2.33;;;1.42;;
12816;SDS011;6473;51.552;6.716;2023-04-03T15:53:06;2.40;;;1.30;;
12816;SDS011;6473;51.552;6.716;2023-04-03T15:55:36;1.30;;;1.15;;
12816;SDS011;6473;51.552;6.716;2023-04-03T15:58:03;2.17;;;1.30;;
12816;SDS011;6473;51.552;6.716;2023-04-03T16:00:30;1.52;;;1.35;;
12816;SDS011;6473;51.552;6.716;2023-04-03T16:02:58;2.35;;;1.48;;
12816;SDS011;6473;51.552;6.716;2023-04-03T16:05:29;1.63;;;1.23;;
12816;SDS011;6473;51.552;6.716;2023-04-03T16:07:56;1.90;;;1.23;;
12816;SDS011;6473;51.552;6.716;2023-04-03T16:10:24;2.80;;;1.20;;
12816;SDS011;6473;51.552;6.716;2023-04-03T16:12:53;3.45;;;1.52;;
12816;SDS011;6473;51.552;6.716;2023-04-03T16:15:20;3.53;;;1.45;;
12816;SDS011;6473;51.552;6.716;2023-04-03T16:17:47;2.83;;;1.48;;
12816;SDS011;6473;51.552;6.716;2023-04-03T16:20:14;3.30;;;1.30;;
12816;SDS011;6473;51.552;6.716;2023-04-03T16:22:41;2.42;;;1.33;;
12816;SDS011;6473;51.552;6.716;2023-04-03T16:25:09;1.95;;;1.27;;
12816;SDS011;6473;51.552;6.716;2023-04-03T16:27:36;1.30;;;1.20;;
12816;SDS011;6473;51.552;6.716;2023-04-03T16:30:06;2.75;;;1.23;;
12816;SDS011;6473;51.552;6.716;2023-04-03T16:32:35;4.63;;;1.58;;
12816;SDS011;6473;51.552;6.716;2023-04-03T16:35:03;4.38;;;1.40;;
12816;SDS011;6473;51.552;6.716;2023-04-03T16:37:31;2.55;;;1.20;;
12816;SDS011;6473;51.552;6.716;2023-04-03T16:39:58;3.08;;;1.60;;